Main page
METAR-TAF:

METAR-TAF

Airports :

Jersey Airport

Jersey,

latitude: 49-13N, longitude: 002-12W, elevation: 84 m

Current weather observation

The report was made 21 minutes ago, at 03:50 UTC
Wind 1 kt from variable directions
Temperature 12°C
Humidity 100%
Pressure 1015 hPa
Visibility: 7000 m

METAR: EGJJ 190350Z AUTO VRB01KT 7000 SCT016/// 12/12 Q1015

Time: 05:11 (04:11 UTC)

Forecast

The report was made 2 hours and 14 minutes ago, at 01:57 UTC
Forecast valid from 19 at 03 UTC to 19 at 12 UTC
Wind 3 kt from variable directions
Visibility 10 km or more
Few clouds at a height of 700 ft
Scattered clouds at a height of 1700 ft
Probability 40% :
Temporary
from 19 at 03 UTC to 19 at 12 UTC
Broken clouds at a height of 1000 ft
Becoming
from 19 at 10 UTC to 19 at 12 UTC
Wind 10 kt from the East
Temporary
from 19 at 10 UTC to 19 at 12 UTC
Visibility: 8000 m
rain showers

TAF: EGJJ 190157Z 1903/1912 VRB03KT 9999 FEW007 SCT017 PROB40 TEMPO 1903/1912 BKN010 BECMG 1910/1912 08010KT TEMPO 1910/1912 8000 SHRA

Weather observations and forecasts of more than 4000 airports (METAR and TAF reports).

The available stations are represented by yellow and red dots on the map.

Hover mouse over dot to see the name of the station.

Then click to see weather observations and forecasts.

To change the map : click on the green buttons with a black cross to zoom in, on the green button with a dash to zoom out, or on the green arrows for adjacent maps.


METAR-TAF: